sensor_id;sensor_type;location;lat;lon;timestamp;pressure;altitude;pressure_sealevel;temperature;humidity
59104;BME280;51449;51.676;5.812;2023-03-01T00:00:20;103079.44;;;1.30;53.04
59104;BME280;51449;51.676;5.812;2023-03-01T00:02:42;103076.94;;;1.28;52.79
59104;BME280;51449;51.676;5.812;2023-03-01T00:05:04;103070.66;;;1.27;52.60
59104;BME280;51449;51.676;5.812;2023-03-01T00:07:26;103075.47;;;1.25;53.15
59104;BME280;51449;51.676;5.812;2023-03-01T00:09:48;103068.59;;;1.23;53.14
59104;BME280;51449;51.676;5.812;2023-03-01T00:12:10;103068.81;;;1.21;52.84
59104;BME280;51449;51.676;5.812;2023-03-01T00:14:32;103073.00;;;1.17;52.71
59104;BME280;51449;51.676;5.812;2023-03-01T00:16:55;103079.47;;;1.16;52.51
59104;BME280;51449;51.676;5.812;2023-03-01T00:19:19;103082.00;;;1.11;52.45
59104;BME280;51449;51.676;5.812;2023-03-01T00:21:43;103077.84;;;1.02;53.24
59104;BME280;51449;51.676;5.812;2023-03-01T00:24:05;103077.03;;;0.95;53.30
59104;BME280;51449;51.676;5.812;2023-03-01T00:26:27;103070.59;;;0.89;53.08
59104;BME280;51449;51.676;5.812;2023-03-01T00:28:50;103069.13;;;0.87;53.14
59104;BME280;51449;51.676;5.812;2023-03-01T00:31:21;103068.50;;;0.84;53.05
59104;BME280;51449;51.676;5.812;2023-03-01T00:33:44;103064.97;;;0.84;53.14
59104;BME280;51449;51.676;5.812;2023-03-01T00:36:07;103062.69;;;0.81;53.28
59104;BME280;51449;51.676;5.812;2023-03-01T00:38:30;103066.22;;;0.81;53.61
59104;BME280;51449;51.676;5.812;2023-03-01T00:40:55;103063.53;;;0.81;53.94
59104;BME280;51449;51.676;5.812;2023-03-01T00:43:17;103058.09;;;0.81;53.69
59104;BME280;51449;51.676;5.812;2023-03-01T00:45:39;103060.81;;;0.81;53.82
59104;BME280;51449;51.676;5.812;2023-03-01T00:48:01;103054.56;;;0.81;54.10
59104;BME280;51449;51.676;5.812;2023-03-01T00:50:23;103052.03;;;0.79;54.19
59104;BME280;51449;51.676;5.812;2023-03-01T00:52:46;103054.75;;;0.79;54.55
59104;BME280;51449;51.676;5.812;2023-03-01T00:55:08;103050.59;;;0.77;54.03
59104;BME280;51449;51.676;5.812;2023-03-01T00:57:31;103049.75;;;0.76;54.27
59104;BME280;51449;51.676;5.812;2023-03-01T00:59:53;103043.91;;;0.73;53.93
59104;BME280;51449;51.676;5.812;2023-03-01T01:02:15;103049.56;;;0.71;54.31
59104;BME280;51449;51.676;5.812;2023-03-01T01:04:36;103053.31;;;0.70;54.49
59104;BME280;51449;51.676;5.812;2023-03-01T01:06:58;103045.59;;;0.67;54.23
59104;BME280;51449;51.676;5.812;2023-03-01T01:09:20;103039.56;;;0.65;54.26
59104;BME280;51449;51.676;5.812;2023-03-01T01:11:41;103036.22;;;0.63;54.29
59104;BME280;51449;51.676;5.812;2023-03-01T01:14:03;103029.56;;;0.59;54.26
59104;BME280;51449;51.676;5.812;2023-03-01T01:16:26;103031.66;;;0.57;54.26
59104;BME280;51449;51.676;5.812;2023-03-01T01:18:49;103019.56;;;0.53;53.98
59104;BME280;51449;51.676;5.812;2023-03-01T01:21:14;103016.22;;;0.51;54.22
59104;BME280;51449;51.676;5.812;2023-03-01T01:23:38;103024.78;;;0.48;54.44
59104;BME280;51449;51.676;5.812;2023-03-01T01:26:07;103013.75;;;0.42;54.75
59104;BME280;51449;51.676;5.812;2023-03-01T01:28:34;103010.59;;;0.39;54.95
59104;BME280;51449;51.676;5.812;2023-03-01T01:30:56;103010.59;;;0.39;54.71
59104;BME280;51449;51.676;5.812;2023-03-01T01:33:18;103013.31;;;0.39;55.11
59104;BME280;51449;51.676;5.812;2023-03-01T01:35:40;103012.47;;;0.38;54.89
59104;BME280;51449;51.676;5.812;2023-03-01T01:38:02;103011.47;;;0.39;54.84
59104;BME280;51449;51.676;5.812;2023-03-01T01:40:23;103000.38;;;0.41;54.76
59104;BME280;51449;51.676;5.812;2023-03-01T01:42:45;103002.25;;;0.40;54.55
59104;BME280;51449;51.676;5.812;2023-03-01T01:45:31;103005.19;;;0.39;55.30
59104;BME280;51449;51.676;5.812;2023-03-01T01:47:59;102992.47;;;0.33;55.02
59104;BME280;51449;51.676;5.812;2023-03-01T01:50:25;102994.56;;;0.31;55.47
59104;BME280;51449;51.676;5.812;2023-03-01T01:52:52;102987.06;;;0.26;55.87
59104;BME280;51449;51.676;5.812;2023-03-01T01:55:18;102989.56;;;0.21;56.21
59104;BME280;51449;51.676;5.812;2023-03-01T01:57:48;102984.16;;;0.14;55.89
59104;BME280;51449;51.676;5.812;2023-03-01T02:00:24;102980.84;;;0.12;56.22
59104;BME280;51449;51.676;5.812;2023-03-01T02:02:50;102984.19;;;0.08;56.57
59104;BME280;51449;51.676;5.812;2023-03-01T02:05:24;102983.75;;;0.04;56.38
59104;BME280;51449;51.676;5.812;2023-03-01T02:07:53;102986.06;;;0.01;56.65
59104;BME280;51449;51.676;5.812;2023-03-01T02:10:16;102983.97;;;-0.04;56.76
59104;BME280;51449;51.676;5.812;2023-03-01T02:12:38;102986.25;;;-0.08;56.42
59104;BME280;51449;51.676;5.812;2023-03-01T02:15:00;102985.84;;;-0.11;56.27
59104;BME280;51449;51.676;5.812;2023-03-01T02:17:22;102990.44;;;-0.12;56.80
59104;BME280;51449;51.676;5.812;2023-03-01T02:19:52;102994.41;;;-0.14;57.13
59104;BME280;51449;51.676;5.812;2023-03-01T02:22:31;102985.66;;;-0.16;57.07
59104;BME280;51449;51.676;5.812;2023-03-01T02:25:01;102992.94;;;-0.17;57.21
59104;BME280;51449;51.676;5.812;2023-03-01T02:28:02;102976.25;;;-0.20;56.94
59104;BME280;51449;51.676;5.812;2023-03-01T02:30:33;102988.97;;;-0.21;57.04
59104;BME280;51449;51.676;5.812;2023-03-01T02:32:56;102973.56;;;-0.20;56.92
59104;BME280;51449;51.676;5.812;2023-03-01T02:35:24;102970.66;;;-0.19;57.05
59104;BME280;51449;51.676;5.812;2023-03-01T02:37:47;102971.66;;;-0.20;56.90
59104;BME280;51449;51.676;5.812;2023-03-01T02:40:16;102975.00;;;-0.18;56.94
59104;BME280;51449;51.676;5.812;2023-03-01T02:42:47;102965.84;;;-0.17;57.03
59104;BME280;51449;51.676;5.812;2023-03-01T02:45:12;102969.41;;;-0.16;56.80
59104;BME280;51449;51.676;5.812;2023-03-01T02:47:34;102970.84;;;-0.14;57.13
59104;BME280;51449;51.676;5.812;2023-03-01T02:49:57;102965.44;;;-0.14;57.19
59104;BME280;51449;51.676;5.812;2023-03-01T02:55:10;102970.84;;;-0.20;57.20
59104;BME280;51449;51.676;5.812;2023-03-01T02:57:38;102976.88;;;-0.32;57.39
59104;BME280;51449;51.676;5.812;2023-03-01T03:00:07;102970.41;;;-0.37;57.18
59104;BME280;51449;51.676;5.812;2023-03-01T03:02:41;102981.66;;;-0.40;57.21
59104;BME280;51449;51.676;5.812;2023-03-01T03:05:18;102982.91;;;-0.43;57.41
59104;BME280;51449;51.676;5.812;2023-03-01T03:07:46;102973.94;;;-0.50;57.17
59104;BME280;51449;51.676;5.812;2023-03-01T03:10:12;102965.19;;;-0.52;57.33
59104;BME280;51449;51.676;5.812;2023-03-01T03:12:41;102972.69;;;-0.54;57.41
59104;BME280;51449;51.676;5.812;2023-03-01T03:15:05;102975.63;;;-0.56;57.42
59104;BME280;51449;51.676;5.812;2023-03-01T03:17:30;102973.72;;;-0.62;57.55
59104;BME280;51449;51.676;5.812;2023-03-01T03:19:53;102967.03;;;-0.66;57.33
59104;BME280;51449;51.676;5.812;2023-03-01T03:22:15;102967.91;;;-0.66;57.38
59104;BME280;51449;51.676;5.812;2023-03-01T03:24:38;102971.44;;;-0.65;57.75
59104;BME280;51449;51.676;5.812;2023-03-01T03:27:00;102969.97;;;-0.68;57.47
59104;BME280;51449;51.676;5.812;2023-03-01T03:29:22;102976.22;;;-0.67;57.58
59104;BME280;51449;51.676;5.812;2023-03-01T03:31:44;102969.34;;;-0.70;57.81
59104;BME280;51449;51.676;5.812;2023-03-01T03:34:07;102974.94;;;-0.71;57.59
59104;BME280;51449;51.676;5.812;2023-03-01T03:36:29;102969.31;;;-0.76;57.88
59104;BME280;51449;51.676;5.812;2023-03-01T03:38:51;102971.19;;;-0.77;58.02
59104;BME280;51449;51.676;5.812;2023-03-01T03:41:15;102963.06;;;-0.77;57.76
59104;BME280;51449;51.676;5.812;2023-03-01T03:43:39;102960.56;;;-0.78;57.61
59104;BME280;51449;51.676;5.812;2023-03-01T03:46:04;102958.91;;;-0.79;58.07
59104;BME280;51449;51.676;5.812;2023-03-01T03:48:27;102955.56;;;-0.81;57.98
59104;BME280;51449;51.676;5.812;2023-03-01T03:50:51;102959.97;;;-0.80;58.33
59104;BME280;51449;51.676;5.812;2023-03-01T03:53:17;102952.44;;;-0.78;58.07
59104;BME280;51449;51.676;5.812;2023-03-01T03:55:39;102955.38;;;-0.80;58.24
59104;BME280;51449;51.676;5.812;2023-03-01T03:58:02;102956.38;;;-0.81;57.99
59104;BME280;51449;51.676;5.812;2023-03-01T04:00:28;102954.94;;;-0.83;58.08
59104;BME280;51449;51.676;5.812;2023-03-01T04:02:51;102946.81;;;-0.83;58.13
59104;BME280;51449;51.676;5.812;2023-03-01T04:05:14;102954.53;;;-0.80;57.86
59104;BME280;51449;51.676;5.812;2023-03-01T04:07:39;102950.34;;;-0.83;58.01
59104;BME280;51449;51.676;5.812;2023-03-01T04:10:03;102940.75;;;-0.86;57.97
59104;BME280;51449;51.676;5.812;2023-03-01T04:12:27;102942.44;;;-0.84;58.44
59104;BME280;51449;51.676;5.812;2023-03-01T04:14:49;102947.44;;;-0.81;58.32
59104;BME280;51449;51.676;5.812;2023-03-01T04:17:12;102944.75;;;-0.81;58.06
59104;BME280;51449;51.676;5.812;2023-03-01T04:19:34;102941.22;;;-0.82;58.12
59104;BME280;51449;51.676;5.812;2023-03-01T04:21:57;102943.72;;;-0.80;58.15
59104;BME280;51449;51.676;5.812;2023-03-01T04:24:20;102938.09;;;-0.79;57.99
59104;BME280;51449;51.676;5.812;2023-03-01T04:26:42;102937.88;;;-0.77;58.07
59104;BME280;51449;51.676;5.812;2023-03-01T04:29:04;102937.88;;;-0.77;58.03
59104;BME280;51449;51.676;5.812;2023-03-01T04:31:26;102933.72;;;-0.80;58.27
59104;BME280;51449;51.676;5.812;2023-03-01T04:33:52;102932.03;;;-0.81;58.44
59104;BME280;51449;51.676;5.812;2023-03-01T04:36:17;102929.75;;;-0.84;58.37
59104;BME280;51449;51.676;5.812;2023-03-01T04:38:42;102921.22;;;-0.88;58.16
59104;BME280;51449;51.676;5.812;2023-03-01T04:41:10;102917.88;;;-0.90;57.99
59104;BME280;51449;51.676;5.812;2023-03-01T04:43:33;102914.75;;;-0.87;58.43
59104;BME280;51449;51.676;5.812;2023-03-01T04:46:01;102917.66;;;-0.88;58.72
59104;BME280;51449;51.676;5.812;2023-03-01T04:48:24;102913.31;;;-0.89;58.43
59104;BME280;51449;51.676;5.812;2023-03-01T04:50:47;102916.19;;;-0.91;58.71
59104;BME280;51449;51.676;5.812;2023-03-01T04:53:10;102926.00;;;-0.90;58.24
59104;BME280;51449;51.676;5.812;2023-03-01T04:55:33;102923.28;;;-0.90;58.55
59104;BME280;51449;51.676;5.812;2023-03-01T04:57:55;102920.16;;;-0.93;58.73
59104;BME280;51449;51.676;5.812;2023-03-01T05:00:18;102912.84;;;-0.93;58.84
59104;BME280;51449;51.676;5.812;2023-03-01T05:02:43;102914.53;;;-0.92;58.56
59104;BME280;51449;51.676;5.812;2023-03-01T05:05:06;102909.56;;;-0.95;58.80
59104;BME280;51449;51.676;5.812;2023-03-01T05:07:28;102903.91;;;-1.00;58.40
59104;BME280;51449;51.676;5.812;2023-03-01T05:09:51;102900.59;;;-1.02;58.73
59104;BME280;51449;51.676;5.812;2023-03-01T05:12:16;102902.25;;;-1.01;58.65
59104;BME280;51449;51.676;5.812;2023-03-01T05:14:39;102897.66;;;-1.00;58.66
59104;BME280;51449;51.676;5.812;2023-03-01T05:17:02;102901.22;;;-1.00;58.91
59104;BME280;51449;51.676;5.812;2023-03-01T05:19:25;102895.81;;;-1.00;59.09
59104;BME280;51449;51.676;5.812;2023-03-01T05:21:49;102897.88;;;-1.02;59.18
59104;BME280;51449;51.676;5.812;2023-03-01T05:24:28;102888.50;;;-1.06;59.22
59104;BME280;51449;51.676;5.812;2023-03-01T05:26:52;102888.69;;;-1.08;58.69
59104;BME280;51449;51.676;5.812;2023-03-01T05:29:15;102881.22;;;-1.05;59.20
59104;BME280;51449;51.676;5.812;2023-03-01T05:31:38;102885.38;;;-1.03;59.21
59104;BME280;51449;51.676;5.812;2023-03-01T05:34:01;102880.81;;;-1.02;59.38
59104;BME280;51449;51.676;5.812;2023-03-01T05:36:24;102871.03;;;-1.03;58.94
59104;BME280;51449;51.676;5.812;2023-03-01T05:38:47;102873.31;;;-1.07;59.55
59104;BME280;51449;51.676;5.812;2023-03-01T05:41:15;102870.59;;;-1.07;59.22
59104;BME280;51449;51.676;5.812;2023-03-01T05:43:38;102860.63;;;-1.06;59.31
59104;BME280;51449;51.676;5.812;2023-03-01T05:46:03;102871.84;;;-1.03;59.25
59104;BME280;51449;51.676;5.812;2023-03-01T05:48:25;102863.53;;;-1.01;58.98
59104;BME280;51449;51.676;5.812;2023-03-01T05:50:48;102872.28;;;-0.99;58.71
59104;BME280;51449;51.676;5.812;2023-03-01T05:53:19;102874.16;;;-1.00;58.84
59104;BME280;51449;51.676;5.812;2023-03-01T05:55:45;102877.88;;;-1.01;58.68
59104;BME280;51449;51.676;5.812;2023-03-01T05:58:14;102876.44;;;-1.03;58.94
59104;BME280;51449;51.676;5.812;2023-03-01T06:00:38;102878.50;;;-1.05;58.43
59104;BME280;51449;51.676;5.812;2023-03-01T06:03:00;102879.56;;;-1.06;59.05
59104;BME280;51449;51.676;5.812;2023-03-01T06:05:22;102876.63;;;-1.05;59.28
59104;BME280;51449;51.676;5.812;2023-03-01T06:07:45;102883.72;;;-1.04;59.31
59104;BME280;51449;51.676;5.812;2023-03-01T06:10:08;102873.91;;;-1.05;59.66
59104;BME280;51449;51.676;5.812;2023-03-01T06:12:32;102878.72;;;-1.07;59.79
59104;BME280;51449;51.676;5.812;2023-03-01T06:14:54;102874.94;;;-1.13;59.41
59104;BME280;51449;51.676;5.812;2023-03-01T06:17:16;102878.06;;;-1.16;59.48
59104;BME280;51449;51.676;5.812;2023-03-01T06:19:37;102873.91;;;-1.18;59.45
59104;BME280;51449;51.676;5.812;2023-03-01T06:21:59;102879.13;;;-1.17;59.81
59104;BME280;51449;51.676;5.812;2023-03-01T06:24:21;102888.06;;;-1.16;59.86
59104;BME280;51449;51.676;5.812;2023-03-01T06:26:42;102875.38;;;-1.16;59.52
59104;BME280;51449;51.676;5.812;2023-03-01T06:29:04;102881.59;;;-1.15;59.71
59104;BME280;51449;51.676;5.812;2023-03-01T06:31:25;102878.72;;;-1.14;59.57
59104;BME280;51449;51.676;5.812;2023-03-01T06:33:47;102877.03;;;-1.15;59.87
59104;BME280;51449;51.676;5.812;2023-03-01T06:36:09;102872.66;;;-1.16;59.89
59104;BME280;51449;51.676;5.812;2023-03-01T06:38:31;102870.78;;;-1.15;59.72
59104;BME280;51449;51.676;5.812;2023-03-01T06:40:54;102873.94;;;-1.12;59.99
59104;BME280;51449;51.676;5.812;2023-03-01T06:43:17;102880.16;;;-1.11;59.57
59104;BME280;51449;51.676;5.812;2023-03-01T06:45:39;102877.88;;;-1.08;60.05
59104;BME280;51449;51.676;5.812;2023-03-01T06:48:04;102877.25;;;-1.03;59.79
59104;BME280;51449;51.676;5.812;2023-03-01T06:50:26;102867.69;;;-0.99;60.14
59104;BME280;51449;51.676;5.812;2023-03-01T06:52:55;102874.97;;;-0.93;60.22
59104;BME280;51449;51.676;5.812;2023-03-01T06:55:18;102868.75;;;-0.87;60.46
59104;BME280;51449;51.676;5.812;2023-03-01T06:57:40;102871.69;;;-0.75;60.63
59104;BME280;51449;51.676;5.812;2023-03-01T07:00:05;102869.81;;;-0.61;60.43
59104;BME280;51449;51.676;5.812;2023-03-01T07:02:28;102864.19;;;-0.46;59.90
59104;BME280;51449;51.676;5.812;2023-03-01T07:04:50;102864.38;;;-0.34;59.47
59104;BME280;51449;51.676;5.812;2023-03-01T07:07:13;102865.78;;;-0.05;59.51
59104;BME280;51449;51.676;5.812;2023-03-01T07:09:34;102854.06;;;0.14;59.33
59104;BME280;51449;51.676;5.812;2023-03-01T07:11:57;102861.50;;;0.32;59.15
59104;BME280;51449;51.676;5.812;2023-03-01T07:14:19;102856.47;;;0.36;58.98
59104;BME280;51449;51.676;5.812;2023-03-01T07:16:41;102865.06;;;0.33;58.64
59104;BME280;51449;51.676;5.812;2023-03-01T07:19:02;102866.56;;;0.22;59.37
59104;BME280;51449;51.676;5.812;2023-03-01T07:21:24;102867.22;;;0.11;59.91
59104;BME280;51449;51.676;5.812;2023-03-01T07:23:47;102877.44;;;0.09;60.08
59104;BME280;51449;51.676;5.812;2023-03-01T07:26:10;102880.34;;;0.07;60.72
59104;BME280;51449;51.676;5.812;2023-03-01T07:28:32;102882.84;;;0.02;61.47
59104;BME280;51449;51.676;5.812;2023-03-01T07:31:02;102884.50;;;0.10;60.84
59104;BME280;51449;51.676;5.812;2023-03-01T07:33:24;102894.91;;;0.19;61.14
59104;BME280;51449;51.676;5.812;2023-03-01T07:35:46;102884.03;;;0.26;61.32
59104;BME280;51449;51.676;5.812;2023-03-01T07:38:08;102876.53;;;0.35;61.42
59104;BME280;51449;51.676;5.812;2023-03-01T07:40:30;102876.69;;;0.47;61.06
59104;BME280;51449;51.676;5.812;2023-03-01T07:42:58;102882.03;;;0.60;60.71
59104;BME280;51449;51.676;5.812;2023-03-01T07:45:20;102873.44;;;0.70;60.70
59104;BME280;51449;51.676;5.812;2023-03-01T07:47:41;102880.28;;;0.79;60.87
59104;BME280;51449;51.676;5.812;2023-03-01T07:50:03;102874.59;;;0.87;60.79
59104;BME280;51449;51.676;5.812;2023-03-01T07:52:26;102873.06;;;0.98;60.46
59104;BME280;51449;51.676;5.812;2023-03-01T07:54:48;102882.22;;;1.03;61.13
59104;BME280;51449;51.676;5.812;2023-03-01T07:57:10;102882.59;;;1.07;61.49
59104;BME280;51449;51.676;5.812;2023-03-01T07:59:32;102874.03;;;1.10;61.13
59104;BME280;51449;51.676;5.812;2023-03-01T08:01:57;102885.22;;;1.20;61.03
59104;BME280;51449;51.676;5.812;2023-03-01T08:04:19;102882.69;;;1.25;60.63
59104;BME280;51449;51.676;5.812;2023-03-01T08:06:41;102885.13;;;1.34;60.63
59104;BME280;51449;51.676;5.812;2023-03-01T08:09:03;102881.69;;;1.45;60.24
59104;BME280;51449;51.676;5.812;2023-03-01T08:11:24;102880.78;;;1.51;60.23
59104;BME280;51449;51.676;5.812;2023-03-01T08:13:48;102879.94;;;1.57;60.28
59104;BME280;51449;51.676;5.812;2023-03-01T08:16:14;102882.81;;;1.62;60.34
59104;BME280;51449;51.676;5.812;2023-03-01T08:18:37;102878.97;;;1.70;59.97
59104;BME280;51449;51.676;5.812;2023-03-01T08:21:07;102876.19;;;1.77;59.97
59104;BME280;51449;51.676;5.812;2023-03-01T08:23:31;102881.31;;;1.85;60.34
59104;BME280;51449;51.676;5.812;2023-03-01T08:25:53;102872.66;;;1.95;59.83
59104;BME280;51449;51.676;5.812;2023-03-01T08:28:14;102873.81;;;2.05;59.50
59104;BME280;51449;51.676;5.812;2023-03-01T08:30:36;102866.56;;;2.18;60.07
59104;BME280;51449;51.676;5.812;2023-03-01T08:32:58;102870.41;;;2.28;59.40
59104;BME280;51449;51.676;5.812;2023-03-01T08:35:20;102879.94;;;2.38;59.21
59104;BME280;51449;51.676;5.812;2023-03-01T08:37:42;102868.97;;;2.44;58.70
59104;BME280;51449;51.676;5.812;2023-03-01T08:40:05;102863.44;;;2.51;58.52
59104;BME280;51449;51.676;5.812;2023-03-01T08:42:32;102864.56;;;2.62;58.20
59104;BME280;51449;51.676;5.812;2023-03-01T08:44:54;102854.78;;;2.72;58.06
59104;BME280;51449;51.676;5.812;2023-03-01T08:47:15;102854.81;;;2.84;58.26
59104;BME280;51449;51.676;5.812;2023-03-01T08:49:37;102850.34;;;2.90;57.53
59104;BME280;51449;51.676;5.812;2023-03-01T08:51:59;102848.13;;;2.98;57.54
59104;BME280;51449;51.676;5.812;2023-03-01T08:54:22;102841.41;;;3.13;57.30
59104;BME280;51449;51.676;5.812;2023-03-01T08:56:44;102851.34;;;3.19;56.20
59104;BME280;51449;51.676;5.812;2023-03-01T08:59:06;102846.88;;;3.25;56.12
59104;BME280;51449;51.676;5.812;2023-03-01T09:01:29;102837.28;;;3.34;56.37
59104;BME280;51449;51.676;5.812;2023-03-01T09:03:50;102839.41;;;3.43;55.71
59104;BME280;51449;51.676;5.812;2023-03-01T09:06:13;102839.53;;;3.49;55.33
59104;BME280;51449;51.676;5.812;2023-03-01T09:08:37;102846.91;;;3.60;54.96
59104;BME280;51449;51.676;5.812;2023-03-01T09:11:05;102841.69;;;3.70;54.56
59104;BME280;51449;51.676;5.812;2023-03-01T09:13:29;102837.03;;;3.82;54.39
59104;BME280;51449;51.676;5.812;2023-03-01T09:15:52;102837.03;;;3.94;54.54
59104;BME280;51449;51.676;5.812;2023-03-01T09:18:14;102833.69;;;4.04;53.92
59104;BME280;51449;51.676;5.812;2023-03-01T09:20:35;102829.88;;;4.17;53.47
59104;BME280;51449;51.676;5.812;2023-03-01T09:22:57;102824.06;;;4.25;53.07
59104;BME280;51449;51.676;5.812;2023-03-01T09:25:19;102824.50;;;4.34;52.64
59104;BME280;51449;51.676;5.812;2023-03-01T09:27:41;102823.03;;;4.43;52.42
59104;BME280;51449;51.676;5.812;2023-03-01T09:30:03;102822.91;;;4.49;52.04
59104;BME280;51449;51.676;5.812;2023-03-01T09:32:25;102816.00;;;4.59;52.08
59104;BME280;51449;51.676;5.812;2023-03-01T09:34:47;102811.03;;;4.72;52.05
59104;BME280;51449;51.676;5.812;2023-03-01T09:37:27;102820.72;;;4.80;51.17
59104;BME280;51449;51.676;5.812;2023-03-01T09:39:49;102819.75;;;4.86;51.24
59104;BME280;51449;51.676;5.812;2023-03-01T09:42:11;102819.13;;;4.96;50.10
59104;BME280;51449;51.676;5.812;2023-03-01T09:44:54;102806.88;;;4.99;49.82
59104;BME280;51449;51.676;5.812;2023-03-01T09:47:25;102802.66;;;5.08;50.36
59104;BME280;51449;51.676;5.812;2023-03-01T09:50:16;102798.59;;;5.27;49.39
59104;BME280;51449;51.676;5.812;2023-03-01T09:52:42;102788.97;;;5.42;48.77
59104;BME280;51449;51.676;5.812;2023-03-01T09:55:10;102792.16;;;5.55;48.21
59104;BME280;51449;51.676;5.812;2023-03-01T09:57:43;102791.25;;;5.67;47.76
59104;BME280;51449;51.676;5.812;2023-03-01T10:03:09;102785.47;;;5.85;47.24
59104;BME280;51449;51.676;5.812;2023-03-01T10:05:49;102783.16;;;5.94;46.60
59104;BME280;51449;51.676;5.812;2023-03-01T10:08:27;102783.56;;;6.03;46.27
59104;BME280;51449;51.676;5.812;2023-03-01T10:11:21;102779.34;;;6.17;45.85
59104;BME280;51449;51.676;5.812;2023-03-01T10:13:50;102768.19;;;6.24;45.62
59104;BME280;51449;51.676;5.812;2023-03-01T10:16:27;102766.91;;;6.31;45.78
59104;BME280;51449;51.676;5.812;2023-03-01T10:19:27;102766.41;;;6.34;45.27
59104;BME280;51449;51.676;5.812;2023-03-01T10:21:53;102750.03;;;6.39;45.08
59104;BME280;51449;51.676;5.812;2023-03-01T10:24:19;102743.78;;;6.44;44.97
59104;BME280;51449;51.676;5.812;2023-03-01T10:27:05;102735.34;;;6.51;45.39
59104;BME280;51449;51.676;5.812;2023-03-01T10:29:57;102741.97;;;6.55;44.76
59104;BME280;51449;51.676;5.812;2023-03-01T10:32:28;102738.97;;;6.56;44.66
59104;BME280;51449;51.676;5.812;2023-03-01T10:34:50;102734.94;;;6.64;44.07
59104;BME280;51449;51.676;5.812;2023-03-01T10:37:18;102737.19;;;6.72;44.31
59104;BME280;51449;51.676;5.812;2023-03-01T10:40:04;102727.41;;;6.81;44.66
59104;BME280;51449;51.676;5.812;2023-03-01T10:42:46;102726.09;;;6.89;44.17
59104;BME280;51449;51.676;5.812;2023-03-01T10:48:24;102727.53;;;6.97;43.36
59104;BME280;51449;51.676;5.812;2023-03-01T10:50:51;102727.31;;;7.03;43.30
59104;BME280;51449;51.676;5.812;2023-03-01T10:53:28;102727.09;;;7.10;43.37
59104;BME280;51449;51.676;5.812;2023-03-01T10:56:09;102727.97;;;7.21;43.27
59104;BME280;51449;51.676;5.812;2023-03-01T10:58:38;102732.09;;;7.23;43.11
59104;BME280;51449;51.676;5.812;2023-03-01T11:01:23;102731.28;;;7.23;43.02
59104;BME280;51449;51.676;5.812;2023-03-01T11:06:28;102737.13;;;7.37;43.10
59104;BME280;51449;51.676;5.812;2023-03-01T11:08:50;102737.13;;;7.37;42.92
59104;BME280;51449;51.676;5.812;2023-03-01T11:11:33;102734.06;;;7.33;42.67
59104;BME280;51449;51.676;5.812;2023-03-01T11:16:58;102729.25;;;7.08;43.02
59104;BME280;51449;51.676;5.812;2023-03-01T11:19:23;102731.16;;;7.02;43.52
59104;BME280;51449;51.676;5.812;2023-03-01T11:24:33;102713.69;;;7.19;43.60
59104;BME280;51449;51.676;5.812;2023-03-01T11:27:16;102714.81;;;7.23;42.66
59104;BME280;51449;51.676;5.812;2023-03-01T11:32:40;102712.69;;;7.30;42.32
59104;BME280;51449;51.676;5.812;2023-03-01T11:35:24;102708.00;;;7.31;42.77
59104;BME280;51449;51.676;5.812;2023-03-01T11:40:29;102703.75;;;7.55;42.31
59104;BME280;51449;51.676;5.812;2023-03-01T11:45:26;102711.22;;;7.70;42.06
59104;BME280;51449;51.676;5.812;2023-03-01T11:53:27;102715.66;;;7.76;41.03
59104;BME280;51449;51.676;5.812;2023-03-01T11:56:29;102697.25;;;7.71;41.47
59104;BME280;51449;51.676;5.812;2023-03-01T12:10:33;102683.31;;;7.83;41.36
59104;BME280;51449;51.676;5.812;2023-03-01T12:22:56;102668.56;;;8.10;41.52
59104;BME280;51449;51.676;5.812;2023-03-01T12:25:45;102668.56;;;8.15;40.97
59104;BME280;51449;51.676;5.812;2023-03-01T12:28:29;102664.16;;;8.19;41.23
59104;BME280;51449;51.676;5.812;2023-03-01T12:33:57;102668.56;;;8.20;39.93
59104;BME280;51449;51.676;5.812;2023-03-01T12:41:55;102654.84;;;8.20;40.65
59104;BME280;51449;51.676;5.812;2023-03-01T12:47:26;102638.88;;;8.07;40.16
59104;BME280;51449;51.676;5.812;2023-03-01T12:50:17;102636.44;;;8.00;40.78
59104;BME280;51449;51.676;5.812;2023-03-01T12:52:52;102637.50;;;7.94;40.79
59104;BME280;51449;51.676;5.812;2023-03-01T13:00:46;102618.56;;;7.98;41.17
59104;BME280;51449;51.676;5.812;2023-03-01T13:06:44;102612.81;;;8.09;39.56
59104;BME280;51449;51.676;5.812;2023-03-01T13:09:34;102613.66;;;8.15;40.42
59104;BME280;51449;51.676;5.812;2023-03-01T13:17:45;102589.22;;;8.24;40.28
59104;BME280;51449;51.676;5.812;2023-03-01T13:20:14;102592.81;;;8.24;39.89
59104;BME280;51449;51.676;5.812;2023-03-01T13:22:37;102588.66;;;8.17;39.36
59104;BME280;51449;51.676;5.812;2023-03-01T13:25:16;102588.38;;;8.08;39.97
59104;BME280;51449;51.676;5.812;2023-03-01T13:27:40;102597.19;;;8.05;40.39
59104;BME280;51449;51.676;5.812;2023-03-01T13:30:02;102582.09;;;8.07;40.38
59104;BME280;51449;51.676;5.812;2023-03-01T13:32:30;102577.66;;;8.17;39.92
59104;BME280;51449;51.676;5.812;2023-03-01T13:37:37;102570.25;;;8.12;40.31
59104;BME280;51449;51.676;5.812;2023-03-01T13:40:02;102563.69;;;8.13;39.88
59104;BME280;51449;51.676;5.812;2023-03-01T13:42:46;102561.19;;;8.17;39.95
59104;BME280;51449;51.676;5.812;2023-03-01T13:45:24;102552.69;;;8.13;40.22
59104;BME280;51449;51.676;5.812;2023-03-01T13:48:00;102548.59;;;8.15;39.93
59104;BME280;51449;51.676;5.812;2023-03-01T13:50:28;102540.59;;;8.19;39.21
59104;BME280;51449;51.676;5.812;2023-03-01T13:52:58;102535.41;;;8.18;39.72
59104;BME280;51449;51.676;5.812;2023-03-01T13:55:27;102532.91;;;8.21;38.94
59104;BME280;51449;51.676;5.812;2023-03-01T13:58:00;102533.47;;;8.28;38.85
59104;BME280;51449;51.676;5.812;2023-03-01T14:00:39;102526.06;;;8.24;38.82
59104;BME280;51449;51.676;5.812;2023-03-01T14:05:41;102518.13;;;8.17;39.32
59104;BME280;51449;51.676;5.812;2023-03-01T14:08:04;102520.56;;;8.24;39.36
59104;BME280;51449;51.676;5.812;2023-03-01T14:10:53;102506.28;;;8.22;38.86
59104;BME280;51449;51.676;5.812;2023-03-01T14:16:46;102503.53;;;8.32;39.56